Time;durP1;ratioP1;P1;durP2;ratioP2;P2;SDS_P1;SDS_P2;PMS_P1;PMS_P2;Temp;Humidity;BMP_temperature;BMP_pressure;BME280_temperature;BME280_humidity;BME280_pressure;Samples;Min_cycle;Max_cycle;Signal;HPM_P1;HPM_P2
2023/11/19 06:02:45;;;;;;;1.05;0.38;;;11.50;93.20;;;;;;4006617;29;20173;-79
2023/11/19 06:04:47;;;;;;;0.63;0.30;;;11.50;93.20;;;;;;4008202;29;20057;-78
2023/11/19 06:06:49;;;;;;;0.68;0.32;;;11.60;93.20;;;;;;4016325;29;20057;-81
2023/11/19 06:08:51;;;;;;;0.65;0.28;;;11.60;93.20;;;;;;4008175;29;20054;-78
2023/11/19 06:10:52;;;;;;;0.28;0.20;;;11.60;93.20;;;;;;4008022;29;20058;-78
2023/11/19 06:12:56;;;;;;;0.85;0.20;;;11.60;93.10;;;;;;4004544;29;20144;-81
2023/11/19 06:14:57;;;;;;;1.15;0.38;;;11.70;93.10;;;;;;4005391;29;20354;-79
2023/11/19 06:17:00;;;;;;;1.58;0.30;;;11.60;93.40;;;;;;4005677;29;20627;-80
2023/11/19 06:19:01;;;;;;;0.65;0.28;;;11.70;93.00;;;;;;4007548;29;20065;-78
2023/11/19 06:21:04;;;;;;;0.57;0.20;;;11.70;92.90;;;;;;4008267;29;20064;-79
2023/11/19 06:23:06;;;;;;;0.60;0.17;;;11.70;92.90;;;;;;4008435;29;20057;-77
2023/11/19 06:25:09;;;;;;;1.70;0.35;;;11.80;92.90;;;;;;4008546;29;20064;-77
2023/11/19 06:27:11;;;;;;;0.77;0.30;;;11.80;92.80;;;;;;4007488;29;20050;-78
2023/11/19 06:29:18;;;;;;;0.40;0.20;;;11.80;92.80;;;;;;4008295;29;20054;-78
2023/11/19 06:31:20;;;;;;;1.27;0.30;;;11.80;92.80;;;;;;4008474;29;20057;-77
2023/11/19 06:33:23;;;;;;;1.27;0.30;;;11.80;92.80;;;;;;4008128;29;20098;-77
2023/11/19 06:35:25;;;;;;;0.63;0.20;;;11.80;92.90;;;;;;4007904;29;20058;-80
2023/11/19 06:37:27;;;;;;;1.50;0.20;;;11.80;92.90;;;;;;4008129;29;20515;-80
2023/11/19 06:39:29;;;;;;;0.77;0.32;;;11.80;93.00;;;;;;4008442;29;20081;-75
2023/11/19 06:41:31;;;;;;;0.93;0.30;;;11.80;93.10;;;;;;4008313;29;20046;-78
2023/11/19 06:43:33;;;;;;;1.25;0.20;;;11.80;93.30;;;;;;4008258;29;20408;-76
2023/11/19 06:45:36;;;;;;;1.63;0.30;;;11.90;93.30;;;;;;4007978;29;20102;-79
2023/11/19 06:47:38;;;;;;;0.70;0.20;;;11.80;93.30;;;;;;4006484;29;20053;-79
2023/11/19 06:49:44;;;;;;;1.58;0.20;;;11.90;93.40;;;;;;4006852;29;20057;-78
2023/11/19 06:51:46;;;;;;;0.80;0.30;;;11.80;93.50;;;;;;4021854;29;20484;-79
2023/11/19 06:53:48;;;;;;;3.63;0.40;;;11.80;93.40;;;;;;4022237;29;20046;-78
2023/11/19 06:55:49;;;;;;;1.80;0.30;;;11.90;93.50;;;;;;4023299;29;20484;-78
2023/11/19 06:57:51;;;;;;;0.80;0.20;;;11.90;93.50;;;;;;4022125;29;20097;-78
2023/11/19 06:59:52;;;;;;;3.30;0.52;;;11.90;93.50;;;;;;4022510;29;20053;-77
2023/11/19 07:01:54;;;;;;;0.30;0.20;;;11.90;93.50;;;;;;4038757;29;20476;-78
2023/11/19 07:03:57;;;;;;;2.22;0.30;;;11.90;93.50;;;;;;4024243;29;20057;-80
2023/11/19 07:06:00;;;;;;;1.58;0.30;;;11.90;93.60;;;;;;4047272;29;20447;-76
2023/11/19 07:08:02;;;;;;;0.90;0.30;;;11.90;93.50;;;;;;4054025;29;20048;-76
2023/11/19 07:10:08;;;;;;;1.15;0.30;;;12.00;93.50;;;;;;4040499;29;20116;-78
2023/11/19 07:12:10;;;;;;;1.20;0.20;;;11.90;93.40;;;;;;4048146;29;20486;-79
2023/11/19 07:14:12;;;;;;;3.10;0.68;;;12.00;93.40;;;;;;4052731;29;20126;-75
2023/11/19 07:16:15;;;;;;;0.82;0.30;;;12.00;93.40;;;;;;4054009;29;20423;-79
2023/11/19 07:18:17;;;;;;;0.77;0.20;;;12.00;93.30;;;;;;4051874;29;20057;-78
2023/11/19 07:20:19;;;;;;;0.25;0.25;;;12.00;93.30;;;;;;4053770;29;20221;-78
2023/11/19 07:22:22;;;;;;;2.30;0.30;;;12.10;93.30;;;;;;4041699;29;20057;-79
2023/11/19 07:24:24;;;;;;;0.60;0.22;;;12.00;93.30;;;;;;4053695;29;20467;-79
2023/11/19 07:26:26;;;;;;;1.55;0.30;;;12.10;93.30;;;;;;4053619;29;20060;-79
2023/11/19 07:28:29;;;;;;;1.13;0.22;;;12.10;93.20;;;;;;4048785;29;20080;-82
2023/11/19 07:30:31;;;;;;;1.00;0.22;;;12.10;93.20;;;;;;4050819;29;20085;-81
2023/11/19 07:32:33;;;;;;;0.82;0.30;;;12.10;93.10;;;;;;4038186;29;20060;-80
2023/11/19 07:34:35;;;;;;;1.15;0.20;;;12.10;93.10;;;;;;4032614;29;20053;-79
2023/11/19 07:36:37;;;;;;;1.90;0.40;;;12.10;93.00;;;;;;4030691;29;20116;-77
2023/11/19 07:38:41;;;;;;;0.65;0.30;;;12.10;93.00;;;;;;4033335;29;20128;-78
2023/11/19 07:40:43;;;;;;;1.33;0.30;;;12.10;92.90;;;;;;4033329;29;20053;-74
2023/11/19 07:42:45;;;;;;;0.73;0.25;;;12.20;92.90;;;;;;4034737;29;20049;-77
2023/11/19 07:44:47;;;;;;;3.00;0.57;;;12.20;92.80;;;;;;4036896;29;20049;-78
2023/11/19 07:46:49;;;;;;;1.27;0.40;;;12.20;92.80;;;;;;4039312;29;20056;-77
2023/11/19 07:48:50;;;;;;;0.82;0.38;;;12.20;92.80;;;;;;4032875;29;20056;-79
2023/11/19 07:50:53;;;;;;;0.38;0.15;;;12.30;92.90;;;;;;4035395;29;20041;-81
2023/11/19 07:52:55;;;;;;;0.68;0.20;;;12.30;92.90;;;;;;4031923;29;20055;-80
2023/11/19 07:54:58;;;;;;;2.53;0.30;;;12.30;92.90;;;;;;4032777;29;20052;-80
2023/11/19 07:57:01;;;;;;;0.68;0.28;;;12.30;92.70;;;;;;4037554;29;20139;-79
2023/11/19 07:59:03;;;;;;;0.45;0.20;;;12.30;92.80;;;;;;4037062;29;20504;-78
2023/11/19 08:01:07;;;;;;;0.82;0.30;;;12.30;92.70;;;;;;4040669;29;20049;-78
2023/11/19 08:03:08;;;;;;;0.20;0.13;;;12.30;92.60;;;;;;4040525;29;20171;-80
2023/11/19 08:05:11;;;;;;;2.55;0.35;;;12.30;92.50;;;;;;4053860;29;20048;-78
2023/11/19 08:07:14;;;;;;;1.02;0.30;;;12.40;92.50;;;;;;4062387;29;20301;-77
2023/11/19 08:09:15;;;;;;;1.50;0.40;;;12.40;92.40;;;;;;4066753;29;20053;-80
2023/11/19 08:11:19;;;;;;;0.50;0.30;;;12.40;92.40;;;;;;4052774;29;20079;-80
2023/11/19 08:13:21;;;;;;;1.70;0.40;;;12.40;92.20;;;;;;4041579;29;20060;-78
2023/11/19 08:15:22;;;;;;;0.68;0.30;;;12.40;92.10;;;;;;4054051;29;20060;-79
2023/11/19 08:17:24;;;;;;;1.42;0.40;;;12.40;91.90;;;;;;4053294;29;20052;-78
2023/11/19 08:19:26;;;;;;;0.90;0.40;;;12.40;91.90;;;;;;4038201;29;20086;-79
2023/11/19 08:21:28;;;;;;;0.90;0.30;;;12.40;91.70;;;;;;4038073;29;20069;-80
2023/11/19 08:23:31;;;;;;;1.30;0.40;;;12.50;91.70;;;;;;4037625;29;20056;-78
2023/11/19 08:25:33;;;;;;;1.35;0.30;;;12.50;91.60;;;;;;4038122;29;20057;-79
2023/11/19 08:27:36;;;;;;;0.68;0.30;;;12.50;91.60;;;;;;4040022;29;20045;-78
2023/11/19 08:29:38;;;;;;;2.10;0.30;;;12.50;91.50;;;;;;4052584;29;20089;-77
2023/11/19 08:31:40;;;;;;;1.52;0.40;;;12.60;91.20;;;;;;4056224;29;20057;-77
2023/11/19 08:33:42;;;;;;;0.88;0.30;;;12.60;91.20;;;;;;4054612;29;20059;-79
2023/11/19 08:35:45;;;;;;;2.38;0.70;;;12.60;91.10;;;;;;4056215;29;20052;-79
2023/11/19 08:37:45;;;;;;;1.02;0.20;;;12.60;91.10;;;;;;4056131;29;20052;-79
2023/11/19 08:39:47;;;;;;;1.60;0.45;;;12.60;91.10;;;;;;4040956;29;20109;-79
2023/11/19 08:41:50;;;;;;;1.50;0.55;;;12.70;90.90;;;;;;4040578;29;20045;-79
2023/11/19 08:43:53;;;;;;;1.70;0.40;;;12.80;90.80;;;;;;4040486;29;20049;-79
2023/11/19 08:45:54;;;;;;;1.90;0.40;;;12.70;90.70;;;;;;4040653;29;20045;-78
2023/11/19 08:47:56;;;;;;;1.73;0.40;;;12.80;90.60;;;;;;4040831;29;20114;-78
2023/11/19 08:49:58;;;;;;;1.35;0.38;;;12.80;90.50;;;;;;4039899;29;20053;-76
2023/11/19 08:51:59;;;;;;;2.35;0.40;;;12.90;90.40;;;;;;4039624;29;20056;-78
2023/11/19 08:54:01;;;;;;;2.13;0.40;;;12.90;90.20;;;;;;4040434;29;20104;-79
2023/11/19 08:56:04;;;;;;;1.08;0.45;;;12.90;90.20;;;;;;4039972;29;20072;-79
2023/11/19 08:58:06;;;;;;;1.98;0.60;;;13.00;90.30;;;;;;4040587;29;20045;-78
2023/11/19 09:00:14;;;;;;;1.20;0.47;;;13.00;90.00;;;;;;4047374;29;20455;-78
2023/11/19 09:02:15;;;;;;;1.00;0.40;;;13.00;89.80;;;;;;4055118;29;20104;-78
2023/11/19 09:04:17;;;;;;;0.65;0.30;;;13.10;89.10;;;;;;4055846;29;20417;-78
2023/11/19 09:06:19;;;;;;;1.08;0.45;;;13.20;88.80;;;;;;4035402;29;20054;-79
2023/11/19 09:08:21;;;;;;;1.50;0.60;;;13.20;88.80;;;;;;4042271;29;20112;-76
2023/11/19 09:10:22;;;;;;;1.48;0.40;;;13.20;88.60;;;;;;4053032;29;20112;-77
2023/11/19 09:12:24;;;;;;;1.08;0.50;;;13.20;87.90;;;;;;4053302;29;20057;-76
2023/11/19 09:14:26;;;;;;;1.88;0.90;;;13.20;88.40;;;;;;4056256;29;20135;-77
2023/11/19 09:16:29;;;;;;;2.03;0.50;;;13.30;88.10;;;;;;4055844;29;20414;-77
2023/11/19 09:18:31;;;;;;;2.35;1.23;;;13.30;88.00;;;;;;4055659;29;20479;-77
2023/11/19 09:20:38;;;;;;;2.72;0.93;;;13.30;87.80;;;;;;4047081;29;20068;-78
2023/11/19 09:22:40;;;;;;;2.17;0.70;;;13.40;87.60;;;;;;4044361;29;20044;-77
2023/11/19 09:24:43;;;;;;;2.30;0.40;;;13.40;87.70;;;;;;4055691;29;20053;-76
2023/11/19 09:26:45;;;;;;;1.33;0.40;;;13.50;86.70;;;;;;4055862;29;20495;-77
2023/11/19 09:28:47;;;;;;;0.57;0.30;;;13.50;87.00;;;;;;4053434;29;20053;-77
2023/11/19 09:30:49;;;;;;;1.42;0.30;;;13.50;86.50;;;;;;4055755;29;20053;-78
2023/11/19 09:32:53;;;;;;;1.48;0.50;;;13.50;86.40;;;;;;4053116;29;20414;-78
2023/11/19 09:34:55;;;;;;;1.58;0.50;;;13.60;86.20;;;;;;4055528;29;20091;-75
2023/11/19 09:36:56;;;;;;;1.95;0.35;;;13.60;86.30;;;;;;4050732;29;20388;-77
2023/11/19 09:38:59;;;;;;;0.85;0.30;;;13.60;86.00;;;;;;4054264;29;20049;-76
2023/11/19 09:41:08;;;;;;;0.85;0.45;;;13.60;86.10;;;;;;4055221;29;20056;-78
2023/11/19 09:43:10;;;;;;;2.53;1.20;;;13.60;86.00;;;;;;4055461;29;20075;-78
2023/11/19 09:45:16;;;;;;;0.98;0.40;;;13.70;85.80;;;;;;4055406;29;20765;-78
2023/11/19 09:47:19;;;;;;;1.17;0.32;;;13.70;85.20;;;;;;4053154;29;20052;-78
2023/11/19 09:49:25;;;;;;;1.13;0.50;;;13.70;85.40;;;;;;4045469;29;20560;-78
2023/11/19 09:51:27;;;;;;;1.90;0.50;;;13.70;84.90;;;;;;4039644;29;20406;-78
2023/11/19 09:53:29;;;;;;;2.63;0.35;;;13.70;85.30;;;;;;4037215;29;20087;-78
2023/11/19 09:55:31;;;;;;;1.98;0.50;;;13.70;84.90;;;;;;4040345;29;20052;-77
2023/11/19 09:57:36;;;;;;;1.05;0.38;;;13.80;85.20;;;;;;4042919;29;20049;-78
2023/11/19 09:59:40;;;;;;;1.58;0.50;;;13.70;85.40;;;;;;4037757;29;20558;-78
2023/11/19 10:01:43;;;;;;;0.95;0.30;;;13.80;84.80;;;;;;4037238;29;20423;-77
2023/11/19 10:03:48;;;;;;;1.40;0.40;;;13.80;84.70;;;;;;4037478;29;20616;-81
2023/11/19 10:05:52;;;;;;;1.27;0.40;;;13.80;84.80;;;;;;4036409;29;20056;-79
2023/11/19 10:07:55;;;;;;;0.77;0.30;;;13.80;84.50;;;;;;4033946;29;20716;-76
2023/11/19 10:09:57;;;;;;;1.08;0.40;;;13.90;84.80;;;;;;4045252;29;20384;-77
2023/11/19 10:11:59;;;;;;;2.53;0.43;;;13.90;84.70;;;;;;4044152;29;20060;-77
2023/11/19 10:14:01;;;;;;;0.95;0.40;;;13.90;84.70;;;;;;4052862;29;20056;-78
2023/11/19 10:16:08;;;;;;;0.90;0.40;;;13.90;84.50;;;;;;4052860;29;20169;-79
2023/11/19 10:18:10;;;;;;;0.45;0.30;;;13.90;84.10;;;;;;4052732;29;20064;-80
2023/11/19 10:20:12;;;;;;;1.08;0.40;;;14.00;84.30;;;;;;4047039;29;20067;-78
2023/11/19 10:22:16;;;;;;;1.45;0.57;;;14.00;84.00;;;;;;4037489;29;20061;-77
2023/11/19 10:24:33;;;;;;;2.45;0.70;;;14.00;83.90;;;;;;4037047;29;20063;-77
2023/11/19 10:26:38;;;;;;;1.13;0.43;;;14.00;83.80;;;;;;4036916;29;20085;-79
2023/11/19 10:28:42;;;;;;;1.83;0.50;;;14.10;83.60;;;;;;4035948;29;20056;-78
2023/11/19 10:30:44;;;;;;;2.88;0.90;;;14.10;83.80;;;;;;4037017;29;20482;-78
2023/11/19 10:32:46;;;;;;;1.77;0.55;;;14.10;83.70;;;;;;4036956;29;20064;-78
2023/11/19 10:34:48;;;;;;;5.03;2.10;;;14.10;83.60;;;;;;4036715;29;20124;-79
2023/11/19 10:36:50;;;;;;;2.20;1.00;;;14.20;83.40;;;;;;4036298;29;20064;-81
2023/11/19 10:38:58;;;;;;;4.53;1.52;;;14.20;83.20;;;;;;4036391;29;20057;-80
2023/11/19 10:41:00;;;;;;;1.55;0.70;;;14.20;83.30;;;;;;4036609;29;20049;-78
2023/11/19 10:43:06;;;;;;;1.38;0.60;;;14.20;82.90;;;;;;4046457;29;20065;-78
2023/11/19 10:45:24;;;;;;;1.13;0.50;;;14.20;82.70;;;;;;4032769;29;20563;-79
2023/11/19 10:47:28;;;;;;;1.52;0.60;;;14.20;82.60;;;;;;4042177;29;20138;-77
2023/11/19 10:49:30;;;;;;;1.00;0.40;;;14.30;82.20;;;;;;4040579;29;20109;-81
2023/11/19 10:51:33;;;;;;;1.38;0.43;;;14.30;82.30;;;;;;4022949;29;20113;-78
2023/11/19 10:53:39;;;;;;;1.25;0.60;;;14.40;81.80;;;;;;4044689;29;20507;-77
2023/11/19 10:55:42;;;;;;;1.92;0.50;;;14.50;81.40;;;;;;4042569;29;20104;-78
2023/11/19 10:57:47;;;;;;;0.93;0.43;;;14.50;81.50;;;;;;4039120;29;20049;-80
2023/11/19 10:59:51;;;;;;;1.73;0.50;;;14.60;81.40;;;;;;4035922;29;20045;-79
2023/11/19 11:01:55;;;;;;;1.05;0.30;;;14.60;81.90;;;;;;4041503;29;20077;-78
2023/11/19 11:04:00;;;;;;;1.27;0.43;;;14.60;80.60;;;;;;4047555;29;20483;-80
2023/11/19 11:06:05;;;;;;;0.77;0.40;;;14.70;80.60;;;;;;4046811;29;20132;-79
2023/11/19 11:08:08;;;;;;;;;;;14.70;80.50;;;;;;4048520;29;20462;-81
2023/11/19 11:10:11;;;;;;;1.33;0.50;;;14.70;80.40;;;;;;4046900;29;20006;-76
2023/11/19 11:12:14;;;;;;;1.52;0.60;;;14.70;79.70;;;;;;4045614;29;20044;-80
2023/11/19 11:14:19;;;;;;;1.40;0.40;;;14.80;79.60;;;;;;4035986;29;20048;-76
2023/11/19 11:16:24;;;;;;;2.25;0.50;;;14.80;79.40;;;;;;4047389;29;20100;-80
2023/11/19 11:18:27;;;;;;;2.05;0.80;;;14.70;79.70;;;;;;4039438;29;20056;-79
2023/11/19 11:20:31;;;;;;;1.30;0.50;;;14.70;79.90;;;;;;4043482;29;20053;-80
2023/11/19 11:22:59;;;;;;;2.53;0.68;;;14.70;79.70;;;;;;4047584;29;20056;-80
2023/11/19 11:25:21;;;;;;;1.20;0.50;;;14.70;79.50;;;;;;4047523;29;20048;-79
2023/11/19 11:27:51;;;;;;;1.95;0.47;;;14.70;79.20;;;;;;4037571;29;20513;-81
2023/11/19 11:30:07;;;;;;;1.52;0.60;;;14.70;79.30;;;;;;4046973;29;20045;-80
2023/11/19 11:32:17;;;;;;;;;;;14.70;79.20;;;;;;4047735;29;20060;-79
2023/11/19 11:34:52;;;;;;;1.52;0.50;;;14.70;79.50;;;;;;4041910;29;20014;-79
2023/11/19 11:36:59;;;;;;;;;;;14.70;79.70;;;;;;4046982;29;20071;-79
2023/11/19 11:39:07;;;;;;;4.40;1.10;;;14.70;79.20;;;;;;4047091;29;19970;-79
2023/11/19 11:41:20;;;;;;;2.03;0.60;;;14.70;79.80;;;;;;4046397;29;20055;-79
2023/11/19 11:43:47;;;;;;;2.25;0.65;;;14.70;80.00;;;;;;4037254;29;20060;-78
2023/11/19 11:45:48;;;;;;;1.33;0.50;;;14.80;78.90;;;;;;4047531;29;20060;-78
2023/11/19 11:48:11;;;;;;;1.77;0.60;;;14.80;78.50;;;;;;4047134;29;20383;-80
2023/11/19 11:50:15;;;;;;;1.98;0.60;;;14.80;78.40;;;;;;4047375;29;20076;-80
2023/11/19 11:52:17;;;;;;;2.30;0.65;;;14.80;78.50;;;;;;4035481;29;20053;-79
2023/11/19 11:54:27;;;;;;;1.38;0.50;;;14.90;78.40;;;;;;4046635;29;20123;-78
2023/11/19 11:56:34;;;;;;;2.08;0.40;;;15.00;77.60;;;;;;4043044;29;20053;-77
2023/11/19 11:58:38;;;;;;;1.77;0.50;;;15.10;77.30;;;;;;4047258;29;20104;-80
2023/11/19 12:00:41;;;;;;;1.00;0.50;;;15.20;76.80;;;;;;4046917;29;20619;-79
2023/11/19 12:02:45;;;;;;;1.35;0.50;;;15.20;76.00;;;;;;4031826;29;20494;-78
2023/11/19 12:04:52;;;;;;;2.10;0.43;;;15.30;76.60;;;;;;4043023;29;20049;-77
2023/11/19 12:07:05;;;;;;;1.25;0.40;;;15.30;76.00;;;;;;4050935;29;20941;-75
2023/11/19 12:09:08;;;;;;;2.75;0.80;;;15.40;76.00;;;;;;4047598;29;20061;-79
2023/11/19 12:11:10;;;;;;;2.05;0.50;;;15.50;76.40;;;;;;4050242;29;20102;-81
2023/11/19 12:13:12;;;;;;;1.67;0.60;;;15.60;74.50;;;;;;4051417;29;20048;-78
2023/11/19 12:15:14;;;;;;;0.98;0.30;;;15.70;74.70;;;;;;4049935;29;20060;-78
2023/11/19 12:17:45;;;;;;;1.58;0.40;;;15.60;73.40;;;;;;4036562;29;20423;-78
2023/11/19 12:19:47;;;;;;;1.20;0.50;;;15.60;73.70;;;;;;4040004;29;20064;-77
2023/11/19 12:21:49;;;;;;;1.10;0.20;;;15.60;74.20;;;;;;4049829;29;20060;-77
2023/11/19 12:23:50;;;;;;;0.80;0.25;;;15.40;73.80;;;;;;4041919;29;20056;-78
2023/11/19 12:25:52;;;;;;;0.75;0.30;;;15.40;74.40;;;;;;4046531;29;20152;-77
2023/11/19 12:27:55;;;;;;;1.02;0.30;;;15.40;74.30;;;;;;4039888;29;20053;-79
2023/11/19 12:29:56;;;;;;;0.98;0.30;;;15.50;74.10;;;;;;4047995;29;20753;-78
2023/11/19 12:32:02;;;;;;;1.95;0.20;;;15.50;74.00;;;;;;4050983;29;20425;-77
2023/11/19 12:34:12;;;;;;;;;;;15.50;73.90;;;;;;4049855;29;20060;-77
2023/11/19 12:36:13;;;;;;;1.00;0.30;;;15.50;73.30;;;;;;4035238;29;19924;-80
2023/11/19 12:38:20;;;;;;;0.93;0.30;;;15.60;73.70;;;;;;4033201;29;20075;-79
2023/11/19 12:40:24;;;;;;;1.95;0.50;;;15.60;73.30;;;;;;4041501;29;20164;-78
2023/11/19 12:42:36;;;;;;;0.75;0.20;;;15.60;72.70;;;;;;4041969;29;20109;-80
2023/11/19 12:44:37;;;;;;;0.57;0.38;;;15.70;73.00;;;;;;4035207;29;20057;-79
2023/11/19 12:46:38;;;;;;;1.45;0.50;;;15.70;72.70;;;;;;4034824;29;20053;-79
2023/11/19 12:48:43;;;;;;;1.58;0.40;;;15.90;72.40;;;;;;4034840;29;20056;-76
2023/11/19 12:50:57;;;;;;;1.52;0.50;;;16.40;71.70;;;;;;4033077;29;20085;-79
2023/11/19 12:52:58;;;;;;;5.38;2.22;;;18.80;64.40;;;;;;4034785;29;20061;-79
2023/11/19 12:55:00;;;;;;;1.30;0.52;;;19.40;59.40;;;;;;4035170;29;20109;-77
2023/11/19 12:57:02;;;;;;;1.13;0.40;;;21.40;57.60;;;;;;4042858;29;20089;-77
2023/11/19 12:59:13;;;;;;;1.42;0.50;;;20.60;55.30;;;;;;4049449;29;20057;-77
2023/11/19 13:01:18;;;;;;;2.13;0.70;;;19.90;56.70;;;;;;4037364;29;20052;-77
2023/11/19 13:03:31;;;;;;;2.15;0.70;;;22.50;55.00;;;;;;4050711;29;20084;-77
2023/11/19 13:05:34;;;;;;;2.00;0.57;;;23.70;50.50;;;;;;4050342;29;20103;-75
2023/11/19 13:07:37;;;;;;;2.33;0.60;;;24.80;47.30;;;;;;4050747;29;20815;-77
2023/11/19 13:09:38;;;;;;;1.42;0.43;;;22.90;48.90;;;;;;4049154;29;20414;-79
2023/11/19 13:11:40;;;;;;;1.95;0.57;;;21.40;51.20;;;;;;4048885;29;20985;-76
2023/11/19 13:13:55;;;;;;;1.42;0.52;;;21.70;51.30;;;;;;4053492;29;20442;-77
2023/11/19 13:16:05;;;;;;;1.15;0.50;;;20.60;52.90;;;;;;4046829;29;20049;-77
2023/11/19 13:18:07;;;;;;;3.95;0.60;;;20.30;53.80;;;;;;4037677;29;20048;-76
2023/11/19 13:20:11;;;;;;;2.35;0.60;;;19.70;55.10;;;;;;4042339;29;20080;-76
2023/11/19 13:22:13;;;;;;;3.13;0.60;;;19.40;56.00;;;;;;4053463;29;20080;-77
2023/11/19 13:24:15;;;;;;;1.90;0.50;;;19.60;56.20;;;;;;4053077;29;20056;-78
2023/11/19 13:26:17;;;;;;;3.08;0.73;;;22.70;49.80;;;;;;4052280;29;20048;-78
2023/11/19 13:28:19;;;;;;;2.17;0.50;;;25.40;45.80;;;;;;4053035;29;20058;-78
2023/11/19 13:30:22;;;;;;;1.98;0.65;;;27.80;41.00;;;;;;4046166;29;20049;-79
2023/11/19 13:32:23;;;;;;;1.92;0.75;;;29.10;38.70;;;;;;4038003;29;20509;-75
2023/11/19 13:34:25;;;;;;;1.95;0.65;;;31.10;34.90;;;;;;4052667;29;20049;-77
2023/11/19 13:36:27;;;;;;;1.83;0.60;;;31.30;33.20;;;;;;4053247;29;20088;-79
2023/11/19 13:38:29;;;;;;;1.13;0.50;;;31.60;33.00;;;;;;4053565;29;20057;-78
2023/11/19 13:40:32;;;;;;;1.48;0.50;;;32.40;31.20;;;;;;4051506;29;20547;-77
2023/11/19 13:42:34;;;;;;;2.38;0.50;;;30.20;30.80;;;;;;4053577;29;20052;-75
2023/11/19 13:44:36;;;;;;;2.15;0.57;;;28.40;34.60;;;;;;4048847;29;20258;-77
2023/11/19 13:46:38;;;;;;;2.03;0.60;;;26.40;37.20;;;;;;4045964;29;20045;-77
2023/11/19 13:48:40;;;;;;;3.78;0.70;;;27.50;38.00;;;;;;4037632;29;20132;-78
2023/11/19 13:50:42;;;;;;;2.45;0.52;;;26.30;37.40;;;;;;4037654;29;20395;-77
2023/11/19 13:52:46;;;;;;;1.20;0.50;;;25.60;38.70;;;;;;4037196;29;20491;-78
2023/11/19 13:54:47;;;;;;;2.13;0.40;;;24.40;40.50;;;;;;4037565;29;20076;-78
2023/11/19 13:56:54;;;;;;;1.10;0.50;;;23.70;43.80;;;;;;4036996;29;20053;-76
2023/11/19 13:58:56;;;;;;;2.05;0.60;;;25.50;41.20;;;;;;4036171;29;20097;-76
2023/11/19 14:00:58;;;;;;;2.10;0.45;;;25.50;39.80;;;;;;4037563;29;20067;-77
2023/11/19 14:03:00;;;;;;;2.50;0.50;;;26.00;38.60;;;;;;4037993;29;20049;-76
2023/11/19 14:05:02;;;;;;;1.73;0.70;;;24.10;41.90;;;;;;4037146;29;20057;-76
2023/11/19 14:07:04;;;;;;;5.00;0.63;;;23.00;44.20;;;;;;4035556;29;20053;-77
2023/11/19 14:09:08;;;;;;;1.23;0.50;;;24.20;43.60;;;;;;4037176;29;20113;-78
2023/11/19 14:11:09;;;;;;;4.45;0.73;;;25.60;40.20;;;;;;4035561;29;20053;-74
2023/11/19 14:13:12;;;;;;;2.85;0.90;;;24.50;41.40;;;;;;4034661;29;20193;-76
2023/11/19 14:15:13;;;;;;;4.60;1.05;;;25.10;39.70;;;;;;4036913;29;20488;-77
2023/11/19 14:17:16;;;;;;;3.30;0.80;;;24.90;40.30;;;;;;4038969;29;20431;-78
2023/11/19 14:19:18;;;;;;;1.98;0.70;;;25.70;39.80;;;;;;4037148;29;20410;-77
2023/11/19 14:21:20;;;;;;;1.52;0.50;;;24.30;40.80;;;;;;4037256;29;20052;-76
2023/11/19 14:23:21;;;;;;;3.10;0.70;;;24.50;41.90;;;;;;4036933;29;20064;-75
2023/11/19 14:25:23;;;;;;;1.95;0.73;;;23.10;43.80;;;;;;4037080;29;20053;-76
2023/11/19 14:27:24;;;;;;;1.75;0.70;;;25.20;41.50;;;;;;4048734;29;20101;-77
2023/11/19 14:29:28;;;;;;;1.77;0.95;;;25.90;39.50;;;;;;4035983;29;20789;-76
2023/11/19 14:31:29;;;;;;;2.00;0.70;;;27.30;38.10;;;;;;4037653;29;20053;-77
2023/11/19 14:33:32;;;;;;;2.88;0.85;;;26.30;37.60;;;;;;4037533;29;20049;-77
2023/11/19 14:35:33;;;;;;;1.95;0.60;;;24.50;40.30;;;;;;4037180;29;20048;-78
2023/11/19 14:37:35;;;;;;;2.22;0.80;;;23.80;42.70;;;;;;4036181;29;20067;-77
2023/11/19 14:39:36;;;;;;;1.80;0.70;;;25.30;40.60;;;;;;4047667;29;20048;-76
2023/11/19 14:41:38;;;;;;;3.35;0.60;;;26.10;38.40;;;;;;4052756;29;20658;-76
2023/11/19 14:43:40;;;;;;;1.52;0.55;;;25.30;38.40;;;;;;4052404;29;20059;-76
2023/11/19 14:45:44;;;;;;;2.35;0.50;;;23.80;41.40;;;;;;4052647;29;20147;-77
2023/11/19 14:47:45;;;;;;;1.67;0.50;;;22.60;43.70;;;;;;4048797;29;20049;-79
2023/11/19 14:49:47;;;;;;;1.60;0.50;;;21.50;45.90;;;;;;4048464;29;20063;-78
2023/11/19 14:51:49;;;;;;;1.50;0.60;;;20.70;47.80;;;;;;4052657;29;20053;-77
2023/11/19 14:53:50;;;;;;;1.35;0.40;;;20.40;48.70;;;;;;4052141;29;20104;-75
2023/11/19 14:55:52;;;;;;;2.67;1.20;;;20.90;48.00;;;;;;4038944;29;20116;-76
2023/11/19 14:57:54;;;;;;;2.78;0.90;;;20.20;48.90;;;;;;4036284;29;20056;-77
2023/11/19 14:59:57;;;;;;;1.95;0.55;;;19.90;50.10;;;;;;4037409;29;20140;-79
2023/11/19 15:02:00;;;;;;;2.03;0.60;;;19.50;50.80;;;;;;4036823;29;20057;-78
2023/11/19 15:04:02;;;;;;;1.63;0.68;;;19.20;51.70;;;;;;4037001;29;20069;-78
2023/11/19 15:06:04;;;;;;;1.15;0.40;;;18.90;52.60;;;;;;4036036;29;20052;-77
2023/11/19 15:08:06;;;;;;;2.13;0.50;;;18.40;53.70;;;;;;4039804;29;20735;-78
2023/11/19 15:10:10;;;;;;;1.77;0.60;;;18.20;55.00;;;;;;4052494;29;20052;-80
2023/11/19 15:12:12;;;;;;;1.63;0.52;;;18.00;55.00;;;;;;4050341;29;20777;-79
2023/11/19 15:14:14;;;;;;;3.53;0.70;;;17.90;55.60;;;;;;4052257;29;20052;-78
2023/11/19 15:16:22;;;;;;;1.63;0.60;;;17.70;56.00;;;;;;4052576;29;20071;-77
2023/11/19 15:18:26;;;;;;;1.60;0.52;;;17.70;56.40;;;;;;4044182;29;20092;-77
2023/11/19 15:20:29;;;;;;;1.48;0.50;;;17.40;57.00;;;;;;4036590;29;20052;-78
2023/11/19 15:22:32;;;;;;;1.60;0.35;;;17.10;57.70;;;;;;4036937;29;20053;-78
2023/11/19 15:24:36;;;;;;;4.35;0.75;;;17.00;58.40;;;;;;4036897;29;20052;-79
2023/11/19 15:26:38;;;;;;;1.60;0.50;;;16.70;59.20;;;;;;4036663;29;20053;-78
2023/11/19 15:28:39;;;;;;;2.30;0.70;;;16.70;59.50;;;;;;4035252;29;20067;-77
2023/11/19 15:30:41;;;;;;;1.70;0.60;;;16.40;60.40;;;;;;4036570;29;20053;-78
2023/11/19 15:32:43;;;;;;;2.83;0.70;;;16.30;60.70;;;;;;4036399;29;20108;-78
2023/11/19 15:34:46;;;;;;;1.58;0.57;;;16.20;61.30;;;;;;4035730;29;20144;-76
2023/11/19 15:36:48;;;;;;;2.70;0.68;;;16.10;61.70;;;;;;4036212;29;20053;-77
2023/11/19 15:38:50;;;;;;;2.40;0.70;;;16.00;62.40;;;;;;4035548;29;20057;-76
2023/11/19 15:40:52;;;;;;;1.77;0.57;;;15.90;62.80;;;;;;4035823;29;20057;-78
2023/11/19 15:42:57;;;;;;;1.90;0.68;;;15.80;63.20;;;;;;4035112;29;20148;-78
2023/11/19 15:44:59;;;;;;;1.80;0.52;;;15.80;63.60;;;;;;4036105;29;20049;-79
2023/11/19 15:47:00;;;;;;;2.00;0.80;;;15.70;63.90;;;;;;4036243;29;20049;-78
2023/11/19 15:49:03;;;;;;;3.00;0.75;;;15.60;64.40;;;;;;4035650;29;20109;-80
2023/11/19 15:51:07;;;;;;;1.88;0.75;;;15.60;64.70;;;;;;4033067;29;20061;-78
2023/11/19 15:53:09;;;;;;;2.03;0.60;;;15.50;65.00;;;;;;4035805;29;20056;-76
2023/11/19 15:55:11;;;;;;;1.63;0.60;;;15.40;65.40;;;;;;4036334;29;20057;-80
2023/11/19 15:57:13;;;;;;;2.80;0.80;;;15.40;65.60;;;;;;4036520;29;20503;-79
2023/11/19 15:59:15;;;;;;;2.13;0.60;;;15.30;65.70;;;;;;4034755;29;20164;-80
2023/11/19 16:01:18;;;;;;;2.50;0.65;;;15.30;66.00;;;;;;4035703;29;20097;-79
2023/11/19 16:03:19;;;;;;;1.77;0.75;;;15.30;66.40;;;;;;4036080;29;20057;-77
2023/11/19 16:05:21;;;;;;;3.00;0.90;;;15.30;66.60;;;;;;4031930;29;20139;-77
2023/11/19 16:07:25;;;;;;;2.30;0.88;;;15.30;66.70;;;;;;4039329;29;20061;-78
2023/11/19 16:09:28;;;;;;;4.45;1.73;;;15.20;66.80;;;;;;4034563;29;20325;-77
2023/11/19 16:11:30;;;;;;;4.00;1.10;;;15.10;67.10;;;;;;4033602;29;20384;-80
2023/11/19 16:13:32;;;;;;;2.80;1.20;;;15.10;67.10;;;;;;4035863;29;20112;-78
2023/11/19 16:15:33;;;;;;;3.10;0.82;;;15.00;67.30;;;;;;4034873;29;20139;-79
2023/11/19 16:17:36;;;;;;;3.75;0.90;;;14.90;67.30;;;;;;4035122;29;20111;-79
2023/11/19 16:19:39;;;;;;;3.42;0.80;;;14.90;67.60;;;;;;4034642;29;20080;-78
2023/11/19 16:21:40;;;;;;;2.67;0.90;;;14.90;67.90;;;;;;4035556;29;20475;-80
2023/11/19 16:23:45;;;;;;;4.22;0.90;;;14.80;67.80;;;;;;4035845;29;20053;-79
2023/11/19 16:25:47;;;;;;;3.67;0.80;;;14.80;68.00;;;;;;4035953;29;20530;-80
2023/11/19 16:27:50;;;;;;;4.28;1.20;;;14.70;68.10;;;;;;4040742;29;20049;-79
2023/11/19 16:29:51;;;;;;;2.50;0.93;;;14.70;68.40;;;;;;4038740;29;20125;-76
2023/11/19 16:31:53;;;;;;;2.78;1.10;;;14.70;68.70;;;;;;4035443;29;20053;-78
2023/11/19 16:33:55;;;;;;;4.47;1.02;;;14.60;68.60;;;;;;4034399;29;20149;-75
2023/11/19 16:35:58;;;;;;;2.80;1.00;;;14.70;68.90;;;;;;4033803;29;20132;-74
2023/11/19 16:38:00;;;;;;;3.47;0.82;;;14.60;68.90;;;;;;4039557;29;20479;-79
2023/11/19 16:40:05;;;;;;;3.17;1.00;;;14.60;69.00;;;;;;4045898;29;20064;-77
2023/11/19 16:42:07;;;;;;;1.73;0.70;;;14.50;69.20;;;;;;4046867;29;20139;-80
2023/11/19 16:44:09;;;;;;;3.22;1.00;;;14.50;69.50;;;;;;4050679;29;20112;-78
2023/11/19 16:46:11;;;;;;;2.45;1.00;;;14.40;70.10;;;;;;4040925;29;20057;-79